Killin, United Kingdom
Current Conditions -  °F | °C
As of 11:50 AM on Friday 31 Oct 2014 (Local Time) from EGPF Reporting Station
Overcast Overcast  
Wind Chill: 64°   Ceiling: 2300
Heat Index: 64°   Visibility: 6mi
Dew Point: 57°   Wind: 8mph
Humidity: 77%   Direction: 190°S
Pressure: 29.74"   Gusts: NA
Location:  56.45°N, 4.33°W
Report Text: EGPF 311150Z AUTO 19007KT 150V230 9999 OVC023 18/14 Q1007
Loading
Personal Weather Stations






























Interactive Weather Map New forecast layout! Learn more

10-Day Weather Forecast

Advertisements
Track Severe Weather on mobile